sensor_id;sensor_type;location;lat;lon;timestamp;temperature;humidity
51902;DHT22;37929;53.218;6.548;2022-10-31T00:01:47;13.70;99.90
51902;DHT22;37929;53.218;6.548;2022-10-31T00:04:12;13.70;99.90
51902;DHT22;37929;53.218;6.548;2022-10-31T00:06:38;13.60;99.90
51902;DHT22;37929;53.218;6.548;2022-10-31T00:09:04;13.50;99.90
51902;DHT22;37929;53.218;6.548;2022-10-31T00:11:31;13.50;99.90
51902;DHT22;37929;53.218;6.548;2022-10-31T00:14:00;13.40;99.90
51902;DHT22;37929;53.218;6.548;2022-10-31T00:16:26;13.40;99.90
51902;DHT22;37929;53.218;6.548;2022-10-31T00:18:58;13.30;99.90
51902;DHT22;37929;53.218;6.548;2022-10-31T00:21:24;13.30;99.90
51902;DHT22;37929;53.218;6.548;2022-10-31T00:23:50;13.20;99.90
51902;DHT22;37929;53.218;6.548;2022-10-31T00:26:17;13.20;99.90
51902;DHT22;37929;53.218;6.548;2022-10-31T00:28:46;13.20;99.90
51902;DHT22;37929;53.218;6.548;2022-10-31T00:31:12;13.20;99.90
51902;DHT22;37929;53.218;6.548;2022-10-31T00:33:45;13.10;99.90
51902;DHT22;37929;53.218;6.548;2022-10-31T00:36:17;13.20;99.90
51902;DHT22;37929;53.218;6.548;2022-10-31T00:38:43;13.10;99.90
51902;DHT22;37929;53.218;6.548;2022-10-31T00:41:10;13.10;99.90
51902;DHT22;37929;53.218;6.548;2022-10-31T00:43:36;13.10;99.90
51902;DHT22;37929;53.218;6.548;2022-10-31T00:46:02;13.10;99.90
51902;DHT22;37929;53.218;6.548;2022-10-31T00:48:28;13.10;99.90
51902;DHT22;37929;53.218;6.548;2022-10-31T00:50:54;13.10;99.90
51902;DHT22;37929;53.218;6.548;2022-10-31T00:53:20;13.00;99.90
51902;DHT22;37929;53.218;6.548;2022-10-31T00:55:46;13.00;99.90
51902;DHT22;37929;53.218;6.548;2022-10-31T00:58:12;13.00;99.90
51902;DHT22;37929;53.218;6.548;2022-10-31T01:00:38;13.00;99.90
51902;DHT22;37929;53.218;6.548;2022-10-31T01:03:04;13.00;99.90
51902;DHT22;37929;53.218;6.548;2022-10-31T01:05:30;12.90;99.90
51902;DHT22;37929;53.218;6.548;2022-10-31T01:07:55;12.90;99.90
51902;DHT22;37929;53.218;6.548;2022-10-31T01:10:21;12.90;99.90
51902;DHT22;37929;53.218;6.548;2022-10-31T01:12:48;12.90;99.90
51902;DHT22;37929;53.218;6.548;2022-10-31T01:15:19;12.90;99.90
51902;DHT22;37929;53.218;6.548;2022-10-31T01:17:45;12.90;99.90
51902;DHT22;37929;53.218;6.548;2022-10-31T01:20:11;12.80;99.90
51902;DHT22;37929;53.218;6.548;2022-10-31T01:22:38;12.90;99.90
51902;DHT22;37929;53.218;6.548;2022-10-31T01:25:04;12.80;99.90
51902;DHT22;37929;53.218;6.548;2022-10-31T01:27:31;12.80;99.90
51902;DHT22;37929;53.218;6.548;2022-10-31T01:29:57;12.80;99.90
51902;DHT22;37929;53.218;6.548;2022-10-31T01:32:23;12.80;99.90
51902;DHT22;37929;53.218;6.548;2022-10-31T01:34:49;12.80;99.90
51902;DHT22;37929;53.218;6.548;2022-10-31T01:37:15;12.80;99.90
51902;DHT22;37929;53.218;6.548;2022-10-31T01:39:40;12.80;99.90
51902;DHT22;37929;53.218;6.548;2022-10-31T01:42:06;12.90;99.90
51902;DHT22;37929;53.218;6.548;2022-10-31T01:47:14;12.70;99.90
51902;DHT22;37929;53.218;6.548;2022-10-31T01:49:51;12.70;99.90
51902;DHT22;37929;53.218;6.548;2022-10-31T01:52:26;12.70;99.90
51902;DHT22;37929;53.218;6.548;2022-10-31T01:55:18;12.70;99.90
51902;DHT22;37929;53.218;6.548;2022-10-31T01:57:49;12.70;99.90
51902;DHT22;37929;53.218;6.548;2022-10-31T02:00:16;12.60;99.90
51902;DHT22;37929;53.218;6.548;2022-10-31T02:02:44;12.60;99.90
51902;DHT22;37929;53.218;6.548;2022-10-31T02:05:16;12.60;99.90
51902;DHT22;37929;53.218;6.548;2022-10-31T02:07:48;12.60;99.90
51902;DHT22;37929;53.218;6.548;2022-10-31T02:10:16;12.60;99.90
51902;DHT22;37929;53.218;6.548;2022-10-31T02:12:42;12.60;99.90
51902;DHT22;37929;53.218;6.548;2022-10-31T02:15:09;12.60;99.90
51902;DHT22;37929;53.218;6.548;2022-10-31T02:17:35;12.60;99.90
51902;DHT22;37929;53.218;6.548;2022-10-31T02:31:49;12.50;99.90
51902;DHT22;37929;53.218;6.548;2022-10-31T02:34:13;12.50;99.90
51902;DHT22;37929;53.218;6.548;2022-10-31T02:36:52;12.50;99.90
51902;DHT22;37929;53.218;6.548;2022-10-31T02:42:05;12.40;99.90
51902;DHT22;37929;53.218;6.548;2022-10-31T02:47:23;12.30;99.90
51902;DHT22;37929;53.218;6.548;2022-10-31T02:50:02;12.40;99.90
51902;DHT22;37929;53.218;6.548;2022-10-31T02:52:31;12.40;99.90
51902;DHT22;37929;53.218;6.548;2022-10-31T02:54:57;12.30;99.90
51902;DHT22;37929;53.218;6.548;2022-10-31T02:57:29;12.30;99.90
51902;DHT22;37929;53.218;6.548;2022-10-31T03:00:00;12.30;99.90
51902;DHT22;37929;53.218;6.548;2022-10-31T03:02:42;12.30;99.90
51902;DHT22;37929;53.218;6.548;2022-10-31T03:05:27;12.30;99.90
51902;DHT22;37929;53.218;6.548;2022-10-31T03:08:30;12.30;99.90
51902;DHT22;37929;53.218;6.548;2022-10-31T03:11:05;12.50;99.90
51902;DHT22;37929;53.218;6.548;2022-10-31T03:13:42;12.20;99.90
51902;DHT22;37929;53.218;6.548;2022-10-31T03:16:16;12.20;99.90
51902;DHT22;37929;53.218;6.548;2022-10-31T03:21:44;12.20;99.90
51902;DHT22;37929;53.218;6.548;2022-10-31T03:24:12;12.20;99.90
51902;DHT22;37929;53.218;6.548;2022-10-31T03:26:43;12.10;99.90
51902;DHT22;37929;53.218;6.548;2022-10-31T03:29:13;12.10;99.90
51902;DHT22;37929;53.218;6.548;2022-10-31T03:31:56;12.10;99.90
51902;DHT22;37929;53.218;6.548;2022-10-31T03:34:23;12.10;99.90
51902;DHT22;37929;53.218;6.548;2022-10-31T03:36:51;12.00;99.90
51902;DHT22;37929;53.218;6.548;2022-10-31T03:39:20;12.30;99.90
51902;DHT22;37929;53.218;6.548;2022-10-31T03:42:08;11.90;99.90
51902;DHT22;37929;53.218;6.548;2022-10-31T03:44:35;12.00;99.90
51902;DHT22;37929;53.218;6.548;2022-10-31T03:47:03;11.90;99.90
51902;DHT22;37929;53.218;6.548;2022-10-31T03:49:30;12.00;99.90
51902;DHT22;37929;53.218;6.548;2022-10-31T03:55:05;11.90;99.90
51902;DHT22;37929;53.218;6.548;2022-10-31T03:57:49;11.90;99.90
51902;DHT22;37929;53.218;6.548;2022-10-31T04:00:16;11.90;99.90
51902;DHT22;37929;53.218;6.548;2022-10-31T04:02:50;11.90;99.90
51902;DHT22;37929;53.218;6.548;2022-10-31T04:05:17;11.90;99.90
51902;DHT22;37929;53.218;6.548;2022-10-31T04:07:45;11.90;99.90
51902;DHT22;37929;53.218;6.548;2022-10-31T04:10:14;11.90;99.90
51902;DHT22;37929;53.218;6.548;2022-10-31T04:12:43;11.90;99.90
51902;DHT22;37929;53.218;6.548;2022-10-31T04:15:12;11.90;99.90
51902;DHT22;37929;53.218;6.548;2022-10-31T04:17:40;12.00;99.90
51902;DHT22;37929;53.218;6.548;2022-10-31T04:20:07;11.90;99.90
51902;DHT22;37929;53.218;6.548;2022-10-31T04:22:33;11.90;99.90
51902;DHT22;37929;53.218;6.548;2022-10-31T04:24:59;11.90;99.90
51902;DHT22;37929;53.218;6.548;2022-10-31T04:27:25;11.90;99.90
51902;DHT22;37929;53.218;6.548;2022-10-31T04:29:50;11.80;99.90
51902;DHT22;37929;53.218;6.548;2022-10-31T04:32:16;11.80;99.90
51902;DHT22;37929;53.218;6.548;2022-10-31T04:34:42;11.80;99.90
51902;DHT22;37929;53.218;6.548;2022-10-31T04:37:07;11.70;99.90
51902;DHT22;37929;53.218;6.548;2022-10-31T04:39:33;11.70;99.90
51902;DHT22;37929;53.218;6.548;2022-10-31T04:41:59;11.70;99.90
51902;DHT22;37929;53.218;6.548;2022-10-31T04:44:24;11.70;99.90
51902;DHT22;37929;53.218;6.548;2022-10-31T04:46:50;11.70;99.90
51902;DHT22;37929;53.218;6.548;2022-10-31T04:49:16;11.70;99.90
51902;DHT22;37929;53.218;6.548;2022-10-31T04:51:41;11.60;99.90
51902;DHT22;37929;53.218;6.548;2022-10-31T04:54:07;11.60;99.90
51902;DHT22;37929;53.218;6.548;2022-10-31T04:56:33;11.60;99.90
51902;DHT22;37929;53.218;6.548;2022-10-31T04:58:58;11.60;99.90
51902;DHT22;37929;53.218;6.548;2022-10-31T05:01:24;11.60;99.90
51902;DHT22;37929;53.218;6.548;2022-10-31T05:03:50;11.60;99.90
51902;DHT22;37929;53.218;6.548;2022-10-31T05:06:15;11.60;99.90
51902;DHT22;37929;53.218;6.548;2022-10-31T05:08:41;11.50;99.90
51902;DHT22;37929;53.218;6.548;2022-10-31T05:11:07;11.50;99.90
51902;DHT22;37929;53.218;6.548;2022-10-31T05:13:33;11.50;99.90
51902;DHT22;37929;53.218;6.548;2022-10-31T05:15:59;11.50;99.90
51902;DHT22;37929;53.218;6.548;2022-10-31T05:18:24;11.50;99.90
51902;DHT22;37929;53.218;6.548;2022-10-31T05:20:50;11.50;99.90
51902;DHT22;37929;53.218;6.548;2022-10-31T05:23:16;11.50;99.90
51902;DHT22;37929;53.218;6.548;2022-10-31T05:25:42;11.50;99.90
51902;DHT22;37929;53.218;6.548;2022-10-31T05:28:08;11.50;99.90
51902;DHT22;37929;53.218;6.548;2022-10-31T05:30:34;11.50;99.90
51902;DHT22;37929;53.218;6.548;2022-10-31T05:33:00;11.50;99.90
51902;DHT22;37929;53.218;6.548;2022-10-31T05:35:29;11.40;99.90
51902;DHT22;37929;53.218;6.548;2022-10-31T05:37:55;11.60;99.90
51902;DHT22;37929;53.218;6.548;2022-10-31T05:40:21;11.40;99.90
51902;DHT22;37929;53.218;6.548;2022-10-31T05:42:51;11.40;99.90
51902;DHT22;37929;53.218;6.548;2022-10-31T05:45:18;11.40;99.90
51902;DHT22;37929;53.218;6.548;2022-10-31T05:48:01;11.50;99.90
51902;DHT22;37929;53.218;6.548;2022-10-31T05:50:28;11.40;99.90
51902;DHT22;37929;53.218;6.548;2022-10-31T05:53:03;11.40;99.90
51902;DHT22;37929;53.218;6.548;2022-10-31T05:55:29;11.40;99.90
51902;DHT22;37929;53.218;6.548;2022-10-31T05:57:55;11.40;99.90
51902;DHT22;37929;53.218;6.548;2022-10-31T06:00:22;11.40;99.90
51902;DHT22;37929;53.218;6.548;2022-10-31T06:02:48;11.40;99.90
51902;DHT22;37929;53.218;6.548;2022-10-31T06:05:14;11.30;99.90
51902;DHT22;37929;53.218;6.548;2022-10-31T06:07:40;11.40;99.90
51902;DHT22;37929;53.218;6.548;2022-10-31T06:10:07;11.40;99.90
51902;DHT22;37929;53.218;6.548;2022-10-31T06:12:33;11.40;99.90
51902;DHT22;37929;53.218;6.548;2022-10-31T06:15:04;11.40;99.90
51902;DHT22;37929;53.218;6.548;2022-10-31T06:17:31;11.40;99.90
51902;DHT22;37929;53.218;6.548;2022-10-31T06:19:57;11.40;99.90
51902;DHT22;37929;53.218;6.548;2022-10-31T06:22:22;11.30;99.90
51902;DHT22;37929;53.218;6.548;2022-10-31T06:24:48;11.30;99.90
51902;DHT22;37929;53.218;6.548;2022-10-31T06:27:14;11.30;99.90
51902;DHT22;37929;53.218;6.548;2022-10-31T06:29:40;11.30;99.90
51902;DHT22;37929;53.218;6.548;2022-10-31T06:32:05;11.30;99.90
51902;DHT22;37929;53.218;6.548;2022-10-31T06:34:31;11.30;99.90
51902;DHT22;37929;53.218;6.548;2022-10-31T06:36:57;11.30;99.90
51902;DHT22;37929;53.218;6.548;2022-10-31T06:39:22;11.30;99.90
51902;DHT22;37929;53.218;6.548;2022-10-31T06:41:48;11.30;99.90
51902;DHT22;37929;53.218;6.548;2022-10-31T06:44:14;11.30;99.90
51902;DHT22;37929;53.218;6.548;2022-10-31T06:46:39;11.20;99.90
51902;DHT22;37929;53.218;6.548;2022-10-31T06:49:05;11.30;99.90
51902;DHT22;37929;53.218;6.548;2022-10-31T06:51:31;11.60;99.90
51902;DHT22;37929;53.218;6.548;2022-10-31T06:53:57;11.30;99.90
51902;DHT22;37929;53.218;6.548;2022-10-31T06:56:22;11.30;99.90
51902;DHT22;37929;53.218;6.548;2022-10-31T06:58:48;11.30;99.90
51902;DHT22;37929;53.218;6.548;2022-10-31T07:01:14;11.30;99.90
51902;DHT22;37929;53.218;6.548;2022-10-31T07:03:39;11.30;99.90
51902;DHT22;37929;53.218;6.548;2022-10-31T07:06:05;11.40;99.90
51902;DHT22;37929;53.218;6.548;2022-10-31T07:08:31;11.40;99.90
51902;DHT22;37929;53.218;6.548;2022-10-31T07:10:57;11.40;99.90
51902;DHT22;37929;53.218;6.548;2022-10-31T07:13:23;11.40;99.90
51902;DHT22;37929;53.218;6.548;2022-10-31T07:15:54;11.50;99.90
51902;DHT22;37929;53.218;6.548;2022-10-31T07:18:20;11.50;99.90
51902;DHT22;37929;53.218;6.548;2022-10-31T07:20:47;11.50;99.90
51902;DHT22;37929;53.218;6.548;2022-10-31T07:23:13;11.50;99.90
51902;DHT22;37929;53.218;6.548;2022-10-31T07:25:40;11.50;99.90
51902;DHT22;37929;53.218;6.548;2022-10-31T07:28:06;11.60;99.90
51902;DHT22;37929;53.218;6.548;2022-10-31T07:30:32;11.60;99.90
51902;DHT22;37929;53.218;6.548;2022-10-31T07:32:58;11.60;99.90
51902;DHT22;37929;53.218;6.548;2022-10-31T07:35:27;11.60;99.90
51902;DHT22;37929;53.218;6.548;2022-10-31T07:37:53;11.70;99.90
51902;DHT22;37929;53.218;6.548;2022-10-31T07:40:20;11.70;99.90
51902;DHT22;37929;53.218;6.548;2022-10-31T07:42:51;11.70;99.90
51902;DHT22;37929;53.218;6.548;2022-10-31T07:45:20;11.70;99.90
51902;DHT22;37929;53.218;6.548;2022-10-31T07:47:51;11.60;99.90
51902;DHT22;37929;53.218;6.548;2022-10-31T07:50:22;11.60;99.90
51902;DHT22;37929;53.218;6.548;2022-10-31T07:52:48;11.60;99.90
51902;DHT22;37929;53.218;6.548;2022-10-31T07:55:14;11.60;99.90
51902;DHT22;37929;53.218;6.548;2022-10-31T07:57:40;11.60;99.90
51902;DHT22;37929;53.218;6.548;2022-10-31T08:00:08;11.60;99.90
51902;DHT22;37929;53.218;6.548;2022-10-31T08:02:34;11.60;99.90
51902;DHT22;37929;53.218;6.548;2022-10-31T08:05:00;11.60;99.90
51902;DHT22;37929;53.218;6.548;2022-10-31T08:07:27;11.60;99.90
51902;DHT22;37929;53.218;6.548;2022-10-31T08:09:54;11.60;99.90
51902;DHT22;37929;53.218;6.548;2022-10-31T08:12:20;11.70;99.90
51902;DHT22;37929;53.218;6.548;2022-10-31T08:14:46;12.10;99.90
51902;DHT22;37929;53.218;6.548;2022-10-31T08:17:12;12.00;99.90
51902;DHT22;37929;53.218;6.548;2022-10-31T08:19:38;12.10;99.90
51902;DHT22;37929;53.218;6.548;2022-10-31T08:22:03;12.10;99.90
51902;DHT22;37929;53.218;6.548;2022-10-31T08:24:29;12.10;99.90
51902;DHT22;37929;53.218;6.548;2022-10-31T08:26:55;12.20;99.90
51902;DHT22;37929;53.218;6.548;2022-10-31T08:29:20;12.30;99.90
51902;DHT22;37929;53.218;6.548;2022-10-31T08:31:46;12.50;99.90
51902;DHT22;37929;53.218;6.548;2022-10-31T08:34:12;12.70;99.90
51902;DHT22;37929;53.218;6.548;2022-10-31T08:36:38;12.80;99.90
51902;DHT22;37929;53.218;6.548;2022-10-31T08:39:04;12.90;99.90
51902;DHT22;37929;53.218;6.548;2022-10-31T08:41:30;12.90;99.90
51902;DHT22;37929;53.218;6.548;2022-10-31T08:43:56;12.90;99.90
51902;DHT22;37929;53.218;6.548;2022-10-31T08:46:21;13.10;99.90
51902;DHT22;37929;53.218;6.548;2022-10-31T08:48:48;13.10;99.90
51902;DHT22;37929;53.218;6.548;2022-10-31T08:51:14;13.10;99.90
51902;DHT22;37929;53.218;6.548;2022-10-31T08:53:40;13.10;99.90
51902;DHT22;37929;53.218;6.548;2022-10-31T08:56:08;13.20;99.90
51902;DHT22;37929;53.218;6.548;2022-10-31T08:58:34;13.30;99.90
51902;DHT22;37929;53.218;6.548;2022-10-31T09:01:01;13.40;99.90
51902;DHT22;37929;53.218;6.548;2022-10-31T09:03:28;13.60;99.90
51902;DHT22;37929;53.218;6.548;2022-10-31T09:05:56;13.70;99.90
51902;DHT22;37929;53.218;6.548;2022-10-31T09:08:22;13.70;99.90
51902;DHT22;37929;53.218;6.548;2022-10-31T09:10:56;13.70;99.90
51902;DHT22;37929;53.218;6.548;2022-10-31T09:13:22;13.60;99.90
51902;DHT22;37929;53.218;6.548;2022-10-31T09:15:49;13.70;99.90
51902;DHT22;37929;53.218;6.548;2022-10-31T09:18:17;13.50;99.90
51902;DHT22;37929;53.218;6.548;2022-10-31T09:20:44;13.50;99.90
51902;DHT22;37929;53.218;6.548;2022-10-31T09:23:13;13.50;99.90
51902;DHT22;37929;53.218;6.548;2022-10-31T09:25:39;13.40;99.90
51902;DHT22;37929;53.218;6.548;2022-10-31T09:28:11;13.40;99.90
51902;DHT22;37929;53.218;6.548;2022-10-31T09:30:37;13.50;99.90
51902;DHT22;37929;53.218;6.548;2022-10-31T09:33:05;13.40;99.90
51902;DHT22;37929;53.218;6.548;2022-10-31T09:35:31;13.40;99.90
51902;DHT22;37929;53.218;6.548;2022-10-31T09:37:59;13.40;99.90
51902;DHT22;37929;53.218;6.548;2022-10-31T09:40:49;13.50;99.90
51902;DHT22;37929;53.218;6.548;2022-10-31T09:46:22;13.50;99.90
51902;DHT22;37929;53.218;6.548;2022-10-31T09:51:25;13.60;99.90
51902;DHT22;37929;53.218;6.548;2022-10-31T09:54:02;13.60;99.90
51902;DHT22;37929;53.218;6.548;2022-10-31T09:56:31;13.70;99.90
51902;DHT22;37929;53.218;6.548;2022-10-31T09:59:00;13.70;99.90
51902;DHT22;37929;53.218;6.548;2022-10-31T10:01:46;13.70;99.90
51902;DHT22;37929;53.218;6.548;2022-10-31T10:13:22;13.80;99.90
51902;DHT22;37929;53.218;6.548;2022-10-31T10:16:00;13.80;99.90
51902;DHT22;37929;53.218;6.548;2022-10-31T10:29:47;14.20;99.90
51902;DHT22;37929;53.218;6.548;2022-10-31T10:32:23;14.30;99.90
51902;DHT22;37929;53.218;6.548;2022-10-31T10:34:52;14.30;99.90
51902;DHT22;37929;53.218;6.548;2022-10-31T10:39:52;14.40;99.90
51902;DHT22;37929;53.218;6.548;2022-10-31T10:42:19;14.40;99.90
51902;DHT22;37929;53.218;6.548;2022-10-31T10:45:16;14.40;99.90
51902;DHT22;37929;53.218;6.548;2022-10-31T10:48:07;14.40;99.90
51902;DHT22;37929;53.218;6.548;2022-10-31T10:50:41;14.30;99.90
51902;DHT22;37929;53.218;6.548;2022-10-31T10:53:33;14.40;99.90
51902;DHT22;37929;53.218;6.548;2022-10-31T10:56:17;14.40;99.90
51902;DHT22;37929;53.218;6.548;2022-10-31T10:58:44;14.40;99.90
51902;DHT22;37929;53.218;6.548;2022-10-31T11:01:15;14.40;99.90
51902;DHT22;37929;53.218;6.548;2022-10-31T11:03:41;14.40;99.90
51902;DHT22;37929;53.218;6.548;2022-10-31T11:06:18;14.60;99.90
51902;DHT22;37929;53.218;6.548;2022-10-31T11:08:48;14.40;99.90
51902;DHT22;37929;53.218;6.548;2022-10-31T11:13:44;14.50;99.90
51902;DHT22;37929;53.218;6.548;2022-10-31T11:18:52;14.60;99.90
51902;DHT22;37929;53.218;6.548;2022-10-31T11:21:28;14.70;99.90
51902;DHT22;37929;53.218;6.548;2022-10-31T11:26:38;14.70;99.90
51902;DHT22;37929;53.218;6.548;2022-10-31T11:29:09;14.70;99.90
51902;DHT22;37929;53.218;6.548;2022-10-31T11:31:36;14.70;99.90
51902;DHT22;37929;53.218;6.548;2022-10-31T11:34:04;14.60;99.90
51902;DHT22;37929;53.218;6.548;2022-10-31T11:36:37;14.60;99.90
51902;DHT22;37929;53.218;6.548;2022-10-31T11:39:05;14.60;99.90
51902;DHT22;37929;53.218;6.548;2022-10-31T11:41:38;14.60;99.90
51902;DHT22;37929;53.218;6.548;2022-10-31T11:44:23;14.60;99.90
51902;DHT22;37929;53.218;6.548;2022-10-31T11:46:53;14.60;99.90
51902;DHT22;37929;53.218;6.548;2022-10-31T11:49:36;14.70;99.90
51902;DHT22;37929;53.218;6.548;2022-10-31T11:52:06;14.70;99.90
51902;DHT22;37929;53.218;6.548;2022-10-31T11:59:53;14.80;99.90
51902;DHT22;37929;53.218;6.548;2022-10-31T12:02:20;14.90;99.90
51902;DHT22;37929;53.218;6.548;2022-10-31T12:04:58;14.90;99.90
51902;DHT22;37929;53.218;6.548;2022-10-31T12:07:26;15.00;99.90
51902;DHT22;37929;53.218;6.548;2022-10-31T12:09:52;15.00;99.90
51902;DHT22;37929;53.218;6.548;2022-10-31T12:15:30;15.00;99.90
51902;DHT22;37929;53.218;6.548;2022-10-31T12:26:08;15.20;99.90
51902;DHT22;37929;53.218;6.548;2022-10-31T12:31:28;15.20;99.90
51902;DHT22;37929;53.218;6.548;2022-10-31T12:42:17;15.30;99.90
51902;DHT22;37929;53.218;6.548;2022-10-31T12:45:14;15.30;99.90
51902;DHT22;37929;53.218;6.548;2022-10-31T12:50:50;15.30;99.90
51902;DHT22;37929;53.218;6.548;2022-10-31T12:58:52;15.40;99.90
51902;DHT22;37929;53.218;6.548;2022-10-31T13:01:36;15.40;99.90
51902;DHT22;37929;53.218;6.548;2022-10-31T13:04:18;15.40;99.90
51902;DHT22;37929;53.218;6.548;2022-10-31T13:06:58;15.40;99.90
51902;DHT22;37929;53.218;6.548;2022-10-31T13:09:51;15.40;99.90
51902;DHT22;37929;53.218;6.548;2022-10-31T13:12:20;15.40;99.90
51902;DHT22;37929;53.218;6.548;2022-10-31T13:14:54;15.50;99.90
51902;DHT22;37929;53.218;6.548;2022-10-31T13:17:28;15.50;99.90
51902;DHT22;37929;53.218;6.548;2022-10-31T13:20:05;15.50;99.90
51902;DHT22;37929;53.218;6.548;2022-10-31T13:22:37;15.40;99.90
51902;DHT22;37929;53.218;6.548;2022-10-31T13:25:10;15.40;99.90
51902;DHT22;37929;53.218;6.548;2022-10-31T13:30:18;15.50;99.90
51902;DHT22;37929;53.218;6.548;2022-10-31T13:38:18;15.40;99.90
51902;DHT22;37929;53.218;6.548;2022-10-31T13:40:56;15.40;99.90
51902;DHT22;37929;53.218;6.548;2022-10-31T13:46:23;15.40;99.90
51902;DHT22;37929;53.218;6.548;2022-10-31T13:48:50;15.40;99.90
51902;DHT22;37929;53.218;6.548;2022-10-31T13:51:28;15.40;99.90
51902;DHT22;37929;53.218;6.548;2022-10-31T13:56:23;15.50;99.90
51902;DHT22;37929;53.218;6.548;2022-10-31T14:01:34;15.50;99.90
51902;DHT22;37929;53.218;6.548;2022-10-31T14:04:28;15.50;99.90
51902;DHT22;37929;53.218;6.548;2022-10-31T14:07:04;15.50;99.90
51902;DHT22;37929;53.218;6.548;2022-10-31T14:09:37;15.40;99.90
51902;DHT22;37929;53.218;6.548;2022-10-31T14:12:26;15.50;99.90
51902;DHT22;37929;53.218;6.548;2022-10-31T14:14:57;15.50;99.90
51902;DHT22;37929;53.218;6.548;2022-10-31T14:17:25;15.40;99.90
51902;DHT22;37929;53.218;6.548;2022-10-31T14:22:37;15.50;99.90
51902;DHT22;37929;53.218;6.548;2022-10-31T14:25:34;15.50;99.90
51902;DHT22;37929;53.218;6.548;2022-10-31T14:28:02;15.40;99.90
51902;DHT22;37929;53.218;6.548;2022-10-31T14:30:29;15.50;99.90
51902;DHT22;37929;53.218;6.548;2022-10-31T14:32:59;15.40;99.90
51902;DHT22;37929;53.218;6.548;2022-10-31T14:35:48;15.50;99.90
51902;DHT22;37929;53.218;6.548;2022-10-31T14:38:53;15.50;99.90
51902;DHT22;37929;53.218;6.548;2022-10-31T14:41:46;15.40;99.90
51902;DHT22;37929;53.218;6.548;2022-10-31T14:47:22;15.40;99.90
51902;DHT22;37929;53.218;6.548;2022-10-31T14:52:47;15.40;99.90
51902;DHT22;37929;53.218;6.548;2022-10-31T14:55:15;15.40;99.90
51902;DHT22;37929;53.218;6.548;2022-10-31T14:57:54;15.40;99.90
51902;DHT22;37929;53.218;6.548;2022-10-31T15:00:22;15.40;99.90
51902;DHT22;37929;53.218;6.548;2022-10-31T15:05:50;15.40;99.90
51902;DHT22;37929;53.218;6.548;2022-10-31T15:08:29;15.30;99.90
51902;DHT22;37929;53.218;6.548;2022-10-31T15:10:56;15.30;99.90
51902;DHT22;37929;53.218;6.548;2022-10-31T15:13:22;15.30;99.90
51902;DHT22;37929;53.218;6.548;2022-10-31T15:15:49;15.30;99.90
51902;DHT22;37929;53.218;6.548;2022-10-31T15:18:27;15.30;99.90
51902;DHT22;37929;53.218;6.548;2022-10-31T15:23:41;15.20;99.90
51902;DHT22;37929;53.218;6.548;2022-10-31T15:26:17;15.20;99.90
51902;DHT22;37929;53.218;6.548;2022-10-31T15:28:43;15.20;99.90
51902;DHT22;37929;53.218;6.548;2022-10-31T15:31:17;15.20;99.90
51902;DHT22;37929;53.218;6.548;2022-10-31T15:33:47;15.10;99.90
51902;DHT22;37929;53.218;6.548;2022-10-31T15:36:25;15.10;99.90
51902;DHT22;37929;53.218;6.548;2022-10-31T15:38:51;15.10;99.90
51902;DHT22;37929;53.218;6.548;2022-10-31T15:41:50;15.00;99.90
51902;DHT22;37929;53.218;6.548;2022-10-31T15:44:22;15.00;99.90
51902;DHT22;37929;53.218;6.548;2022-10-31T15:47:04;15.00;99.90
51902;DHT22;37929;53.218;6.548;2022-10-31T15:49:54;15.00;99.90
51902;DHT22;37929;53.218;6.548;2022-10-31T15:52:40;14.90;99.90
51902;DHT22;37929;53.218;6.548;2022-10-31T15:57:47;14.90;99.90
51902;DHT22;37929;53.218;6.548;2022-10-31T16:00:40;14.90;99.90
51902;DHT22;37929;53.218;6.548;2022-10-31T16:03:10;14.90;99.90
51902;DHT22;37929;53.218;6.548;2022-10-31T16:05:50;14.90;99.90
51902;DHT22;37929;53.218;6.548;2022-10-31T16:11:20;14.80;99.90
51902;DHT22;37929;53.218;6.548;2022-10-31T16:14:03;14.80;99.90
51902;DHT22;37929;53.218;6.548;2022-10-31T16:16:32;14.80;99.90
51902;DHT22;37929;53.218;6.548;2022-10-31T16:19:00;14.70;99.90
51902;DHT22;37929;53.218;6.548;2022-10-31T16:21:35;14.80;99.90
51902;DHT22;37929;53.218;6.548;2022-10-31T16:27:04;14.70;99.90
51902;DHT22;37929;53.218;6.548;2022-10-31T16:29:39;14.70;99.90
51902;DHT22;37929;53.218;6.548;2022-10-31T16:37:43;14.70;99.90
51902;DHT22;37929;53.218;6.548;2022-10-31T16:40:12;14.70;99.90
51902;DHT22;37929;53.218;6.548;2022-10-31T16:42:39;14.60;99.90
51902;DHT22;37929;53.218;6.548;2022-10-31T16:45:06;14.60;99.90
51902;DHT22;37929;53.218;6.548;2022-10-31T16:47:33;14.60;99.90
51902;DHT22;37929;53.218;6.548;2022-10-31T16:49:59;14.60;99.90
51902;DHT22;37929;53.218;6.548;2022-10-31T16:52:26;14.60;99.90
51902;DHT22;37929;53.218;6.548;2022-10-31T16:54:51;14.50;99.90
51902;DHT22;37929;53.218;6.548;2022-10-31T16:57:27;14.50;99.90
51902;DHT22;37929;53.218;6.548;2022-10-31T16:59:55;14.50;99.90
51902;DHT22;37929;53.218;6.548;2022-10-31T17:02:22;14.40;99.90
51902;DHT22;37929;53.218;6.548;2022-10-31T17:04:47;14.40;99.90
51902;DHT22;37929;53.218;6.548;2022-10-31T17:07:13;14.40;99.90
51902;DHT22;37929;53.218;6.548;2022-10-31T17:09:39;14.40;99.90
51902;DHT22;37929;53.218;6.548;2022-10-31T17:12:06;14.40;99.90
51902;DHT22;37929;53.218;6.548;2022-10-31T17:14:38;14.40;99.90
51902;DHT22;37929;53.218;6.548;2022-10-31T17:17:04;14.40;99.90
51902;DHT22;37929;53.218;6.548;2022-10-31T17:19:29;14.40;99.90
51902;DHT22;37929;53.218;6.548;2022-10-31T17:21:55;14.40;99.90
51902;DHT22;37929;53.218;6.548;2022-10-31T17:24:21;14.30;99.90
51902;DHT22;37929;53.218;6.548;2022-10-31T17:26:47;14.30;99.90
51902;DHT22;37929;53.218;6.548;2022-10-31T17:29:12;14.30;99.90
51902;DHT22;37929;53.218;6.548;2022-10-31T17:31:39;14.30;99.90
51902;DHT22;37929;53.218;6.548;2022-10-31T17:34:06;14.30;99.90
51902;DHT22;37929;53.218;6.548;2022-10-31T17:36:34;14.30;99.90
51902;DHT22;37929;53.218;6.548;2022-10-31T17:39:00;14.30;99.90
51902;DHT22;37929;53.218;6.548;2022-10-31T17:41:27;14.30;99.90
51902;DHT22;37929;53.218;6.548;2022-10-31T17:43:57;14.30;99.90
51902;DHT22;37929;53.218;6.548;2022-10-31T17:46:24;14.20;99.90
51902;DHT22;37929;53.218;6.548;2022-10-31T17:48:50;14.30;99.90
51902;DHT22;37929;53.218;6.548;2022-10-31T17:51:16;14.20;99.90
51902;DHT22;37929;53.218;6.548;2022-10-31T17:53:42;14.30;99.90
51902;DHT22;37929;53.218;6.548;2022-10-31T17:56:08;14.20;99.90
51902;DHT22;37929;53.218;6.548;2022-10-31T17:58:35;14.20;99.90
51902;DHT22;37929;53.218;6.548;2022-10-31T18:01:10;14.20;99.90
51902;DHT22;37929;53.218;6.548;2022-10-31T18:03:36;14.20;99.90
51902;DHT22;37929;53.218;6.548;2022-10-31T18:06:02;14.20;99.90
51902;DHT22;37929;53.218;6.548;2022-10-31T18:08:30;14.20;99.90
51902;DHT22;37929;53.218;6.548;2022-10-31T18:10:56;14.20;99.90